sensor_id;sensor_type;location;lat;lon;timestamp;P1;durP1;ratioP1;P2;durP2;ratioP2
71087;SDS011;58747;50.674;4.616;2022-09-21T00:02:01;12.87;;;7.67;;
71087;SDS011;58747;50.674;4.616;2022-09-21T00:04:26;15.03;;;7.83;;
71087;SDS011;58747;50.674;4.616;2022-09-21T00:06:52;15.10;;;7.87;;
71087;SDS011;58747;50.674;4.616;2022-09-21T00:09:17;19.42;;;7.90;;
71087;SDS011;58747;50.674;4.616;2022-09-21T00:11:43;15.57;;;8.10;;
71087;SDS011;58747;50.674;4.616;2022-09-21T00:14:10;16.03;;;7.40;;
71087;SDS011;58747;50.674;4.616;2022-09-21T00:16:37;14.02;;;7.15;;
71087;SDS011;58747;50.674;4.616;2022-09-21T00:19:04;13.20;;;7.35;;
71087;SDS011;58747;50.674;4.616;2022-09-21T00:21:30;13.75;;;7.82;;
71087;SDS011;58747;50.674;4.616;2022-09-21T00:23:57;13.03;;;7.63;;
71087;SDS011;58747;50.674;4.616;2022-09-21T00:26:24;12.43;;;6.88;;
71087;SDS011;58747;50.674;4.616;2022-09-21T00:28:53;15.68;;;8.15;;
71087;SDS011;58747;50.674;4.616;2022-09-21T00:31:20;11.68;;;7.03;;
71087;SDS011;58747;50.674;4.616;2022-09-21T00:33:46;15.75;;;7.28;;
71087;SDS011;58747;50.674;4.616;2022-09-21T00:36:13;12.70;;;6.00;;
71087;SDS011;58747;50.674;4.616;2022-09-21T00:38:41;12.18;;;6.68;;
71087;SDS011;58747;50.674;4.616;2022-09-21T00:41:07;12.10;;;6.53;;
71087;SDS011;58747;50.674;4.616;2022-09-21T00:43:34;11.95;;;6.22;;
71087;SDS011;58747;50.674;4.616;2022-09-21T00:46:02;13.43;;;7.45;;
71087;SDS011;58747;50.674;4.616;2022-09-21T00:48:30;11.05;;;6.63;;
71087;SDS011;58747;50.674;4.616;2022-09-21T00:50:58;14.25;;;6.43;;
71087;SDS011;58747;50.674;4.616;2022-09-21T00:53:28;12.33;;;6.57;;
71087;SDS011;58747;50.674;4.616;2022-09-21T00:55:54;11.40;;;6.53;;
71087;SDS011;58747;50.674;4.616;2022-09-21T00:58:26;8.00;;;5.63;;
71087;SDS011;58747;50.674;4.616;2022-09-21T01:00:55;8.57;;;5.40;;
71087;SDS011;58747;50.674;4.616;2022-09-21T01:03:23;9.53;;;5.27;;
71087;SDS011;58747;50.674;4.616;2022-09-21T01:05:49;9.40;;;5.63;;
71087;SDS011;58747;50.674;4.616;2022-09-21T01:08:15;8.37;;;5.27;;
71087;SDS011;58747;50.674;4.616;2022-09-21T01:16:40;8.32;;;5.72;;
71087;SDS011;58747;50.674;4.616;2022-09-21T01:19:31;7.13;;;4.33;;
71087;SDS011;58747;50.674;4.616;2022-09-21T01:22:24;7.03;;;4.75;;
71087;SDS011;58747;50.674;4.616;2022-09-21T01:25:09;7.43;;;4.68;;
71087;SDS011;58747;50.674;4.616;2022-09-21T01:30:20;7.20;;;4.40;;
71087;SDS011;58747;50.674;4.616;2022-09-21T01:32:50;7.00;;;4.80;;
71087;SDS011;58747;50.674;4.616;2022-09-21T01:35:20;13.48;;;5.70;;
71087;SDS011;58747;50.674;4.616;2022-09-21T01:37:56;10.95;;;5.28;;
71087;SDS011;58747;50.674;4.616;2022-09-21T01:40:31;8.27;;;5.05;;
71087;SDS011;58747;50.674;4.616;2022-09-21T01:43:00;7.10;;;4.72;;
71087;SDS011;58747;50.674;4.616;2022-09-21T01:45:31;8.43;;;4.97;;
71087;SDS011;58747;50.674;4.616;2022-09-21T01:48:00;6.13;;;4.05;;
71087;SDS011;58747;50.674;4.616;2022-09-21T01:50:27;6.07;;;4.70;;
71087;SDS011;58747;50.674;4.616;2022-09-21T01:53:07;6.88;;;4.68;;
71087;SDS011;58747;50.674;4.616;2022-09-21T01:58:46;7.63;;;3.92;;
71087;SDS011;58747;50.674;4.616;2022-09-21T02:01:22;6.88;;;4.93;;
71087;SDS011;58747;50.674;4.616;2022-09-21T02:03:53;5.97;;;4.17;;
71087;SDS011;58747;50.674;4.616;2022-09-21T02:06:26;7.03;;;4.72;;
71087;SDS011;58747;50.674;4.616;2022-09-21T02:08:52;5.15;;;3.97;;
71087;SDS011;58747;50.674;4.616;2022-09-21T02:11:19;5.47;;;3.60;;
71087;SDS011;58747;50.674;4.616;2022-09-21T02:13:45;8.13;;;5.67;;
71087;SDS011;58747;50.674;4.616;2022-09-21T02:16:20;6.35;;;4.75;;
71087;SDS011;58747;50.674;4.616;2022-09-21T02:19:14;8.85;;;4.68;;
71087;SDS011;58747;50.674;4.616;2022-09-21T02:27:03;6.22;;;4.13;;
71087;SDS011;58747;50.674;4.616;2022-09-21T02:29:34;8.65;;;4.95;;
71087;SDS011;58747;50.674;4.616;2022-09-21T02:34:34;7.60;;;5.00;;
71087;SDS011;58747;50.674;4.616;2022-09-21T02:39:54;6.43;;;4.70;;
71087;SDS011;58747;50.674;4.616;2022-09-21T02:42:33;7.60;;;4.97;;
71087;SDS011;58747;50.674;4.616;2022-09-21T02:45:10;8.32;;;5.18;;
71087;SDS011;58747;50.674;4.616;2022-09-21T02:47:47;6.65;;;4.80;;
71087;SDS011;58747;50.674;4.616;2022-09-21T02:50:21;6.30;;;5.07;;
71087;SDS011;58747;50.674;4.616;2022-09-21T02:52:54;9.07;;;5.30;;
71087;SDS011;58747;50.674;4.616;2022-09-21T02:55:21;7.82;;;4.68;;
71087;SDS011;58747;50.674;4.616;2022-09-21T02:57:47;7.85;;;5.38;;
71087;SDS011;58747;50.674;4.616;2022-09-21T03:00:14;6.88;;;5.07;;
71087;SDS011;58747;50.674;4.616;2022-09-21T03:02:41;10.07;;;5.07;;
71087;SDS011;58747;50.674;4.616;2022-09-21T03:05:09;6.40;;;4.75;;
71087;SDS011;58747;50.674;4.616;2022-09-21T03:07:36;6.90;;;4.57;;
71087;SDS011;58747;50.674;4.616;2022-09-21T03:10:01;6.17;;;4.47;;
71087;SDS011;58747;50.674;4.616;2022-09-21T03:12:28;6.88;;;5.18;;
71087;SDS011;58747;50.674;4.616;2022-09-21T03:14:53;6.28;;;3.92;;
71087;SDS011;58747;50.674;4.616;2022-09-21T03:17:20;9.73;;;4.93;;
71087;SDS011;58747;50.674;4.616;2022-09-21T03:19:45;7.05;;;5.35;;
71087;SDS011;58747;50.674;4.616;2022-09-21T03:22:10;6.77;;;5.40;;
71087;SDS011;58747;50.674;4.616;2022-09-21T03:24:36;6.23;;;4.60;;
71087;SDS011;58747;50.674;4.616;2022-09-21T03:27:11;6.72;;;5.10;;
71087;SDS011;58747;50.674;4.616;2022-09-21T03:29:37;7.75;;;5.13;;
71087;SDS011;58747;50.674;4.616;2022-09-21T03:32:02;8.37;;;4.93;;
71087;SDS011;58747;50.674;4.616;2022-09-21T03:34:28;6.90;;;4.60;;
71087;SDS011;58747;50.674;4.616;2022-09-21T03:36:55;6.53;;;4.72;;
71087;SDS011;58747;50.674;4.616;2022-09-21T03:39:21;6.75;;;5.45;;
71087;SDS011;58747;50.674;4.616;2022-09-21T03:41:46;8.00;;;5.20;;
71087;SDS011;58747;50.674;4.616;2022-09-21T03:44:12;6.17;;;5.30;;
71087;SDS011;58747;50.674;4.616;2022-09-21T03:46:39;7.88;;;5.53;;
71087;SDS011;58747;50.674;4.616;2022-09-21T03:49:04;9.17;;;5.63;;
71087;SDS011;58747;50.674;4.616;2022-09-21T03:51:30;8.70;;;5.90;;
71087;SDS011;58747;50.674;4.616;2022-09-21T03:53:55;7.17;;;5.10;;
71087;SDS011;58747;50.674;4.616;2022-09-21T03:56:21;7.55;;;5.78;;
71087;SDS011;58747;50.674;4.616;2022-09-21T03:58:46;7.83;;;5.73;;
71087;SDS011;58747;50.674;4.616;2022-09-21T04:01:11;7.43;;;5.87;;
71087;SDS011;58747;50.674;4.616;2022-09-21T04:03:37;9.87;;;5.57;;
71087;SDS011;58747;50.674;4.616;2022-09-21T04:06:07;9.73;;;6.10;;
71087;SDS011;58747;50.674;4.616;2022-09-21T04:08:36;8.48;;;5.78;;
71087;SDS011;58747;50.674;4.616;2022-09-21T04:11:07;7.20;;;5.80;;
71087;SDS011;58747;50.674;4.616;2022-09-21T04:13:37;8.37;;;5.90;;
71087;SDS011;58747;50.674;4.616;2022-09-21T04:16:03;10.07;;;5.95;;
71087;SDS011;58747;50.674;4.616;2022-09-21T04:18:29;7.83;;;5.60;;
71087;SDS011;58747;50.674;4.616;2022-09-21T04:20:54;13.20;;;5.87;;
71087;SDS011;58747;50.674;4.616;2022-09-21T04:23:19;9.90;;;6.20;;
71087;SDS011;58747;50.674;4.616;2022-09-21T04:25:46;8.90;;;5.93;;
71087;SDS011;58747;50.674;4.616;2022-09-21T04:28:15;8.55;;;6.15;;
71087;SDS011;58747;50.674;4.616;2022-09-21T04:30:41;9.23;;;5.97;;
71087;SDS011;58747;50.674;4.616;2022-09-21T04:33:06;10.37;;;5.83;;
71087;SDS011;58747;50.674;4.616;2022-09-21T04:35:31;8.10;;;5.70;;
71087;SDS011;58747;50.674;4.616;2022-09-21T04:37:57;7.37;;;5.47;;
71087;SDS011;58747;50.674;4.616;2022-09-21T04:40:22;8.20;;;4.63;;
71087;SDS011;58747;50.674;4.616;2022-09-21T04:42:51;6.70;;;5.00;;
71087;SDS011;58747;50.674;4.616;2022-09-21T04:45:17;7.55;;;6.50;;
71087;SDS011;58747;50.674;4.616;2022-09-21T04:47:43;8.75;;;5.47;;
71087;SDS011;58747;50.674;4.616;2022-09-21T04:50:09;6.47;;;5.10;;
71087;SDS011;58747;50.674;4.616;2022-09-21T04:52:34;5.83;;;4.60;;
71087;SDS011;58747;50.674;4.616;2022-09-21T04:55:00;9.82;;;5.40;;
71087;SDS011;58747;50.674;4.616;2022-09-21T04:57:26;9.65;;;6.00;;
71087;SDS011;58747;50.674;4.616;2022-09-21T04:59:51;7.70;;;5.37;;
71087;SDS011;58747;50.674;4.616;2022-09-21T05:02:16;9.73;;;5.10;;
71087;SDS011;58747;50.674;4.616;2022-09-21T05:04:42;7.83;;;5.07;;
71087;SDS011;58747;50.674;4.616;2022-09-21T05:07:07;7.77;;;5.80;;
71087;SDS011;58747;50.674;4.616;2022-09-21T05:09:32;7.10;;;4.93;;
71087;SDS011;58747;50.674;4.616;2022-09-21T05:12:16;7.47;;;5.40;;
71087;SDS011;58747;50.674;4.616;2022-09-21T05:14:42;7.20;;;4.63;;
71087;SDS011;58747;50.674;4.616;2022-09-21T05:17:08;7.00;;;4.43;;
71087;SDS011;58747;50.674;4.616;2022-09-21T05:19:34;6.95;;;5.90;;
71087;SDS011;58747;50.674;4.616;2022-09-21T05:22:00;6.33;;;5.20;;
71087;SDS011;58747;50.674;4.616;2022-09-21T05:24:25;6.23;;;5.10;;
71087;SDS011;58747;50.674;4.616;2022-09-21T05:26:50;7.23;;;4.90;;
71087;SDS011;58747;50.674;4.616;2022-09-21T05:29:16;7.87;;;5.87;;
71087;SDS011;58747;50.674;4.616;2022-09-21T05:31:46;9.30;;;5.63;;
71087;SDS011;58747;50.674;4.616;2022-09-21T05:34:25;6.47;;;5.07;;
71087;SDS011;58747;50.674;4.616;2022-09-21T05:40:07;10.23;;;5.65;;
71087;SDS011;58747;50.674;4.616;2022-09-21T05:42:34;8.07;;;6.00;;
71087;SDS011;58747;50.674;4.616;2022-09-21T05:45:00;8.17;;;5.30;;
71087;SDS011;58747;50.674;4.616;2022-09-21T05:52:44;10.73;;;6.07;;
71087;SDS011;58747;50.674;4.616;2022-09-21T05:55:17;8.63;;;5.60;;
71087;SDS011;58747;50.674;4.616;2022-09-21T06:00:54;10.38;;;5.28;;
71087;SDS011;58747;50.674;4.616;2022-09-21T06:03:34;7.20;;;5.25;;
71087;SDS011;58747;50.674;4.616;2022-09-21T06:06:00;10.48;;;6.47;;
71087;SDS011;58747;50.674;4.616;2022-09-21T06:08:26;9.37;;;6.97;;
71087;SDS011;58747;50.674;4.616;2022-09-21T06:10:52;9.07;;;5.65;;
71087;SDS011;58747;50.674;4.616;2022-09-21T06:13:18;12.70;;;7.22;;
71087;SDS011;58747;50.674;4.616;2022-09-21T06:15:44;9.47;;;5.80;;
71087;SDS011;58747;50.674;4.616;2022-09-21T06:18:09;8.07;;;6.13;;
71087;SDS011;58747;50.674;4.616;2022-09-21T06:20:35;9.60;;;6.20;;
71087;SDS011;58747;50.674;4.616;2022-09-21T06:23:01;11.07;;;5.95;;
71087;SDS011;58747;50.674;4.616;2022-09-21T06:25:27;9.55;;;6.95;;
71087;SDS011;58747;50.674;4.616;2022-09-21T06:27:53;9.57;;;6.03;;
71087;SDS011;58747;50.674;4.616;2022-09-21T06:30:19;14.00;;;6.35;;
71087;SDS011;58747;50.674;4.616;2022-09-21T06:32:44;10.10;;;7.00;;
71087;SDS011;58747;50.674;4.616;2022-09-21T06:35:09;11.07;;;6.37;;
71087;SDS011;58747;50.674;4.616;2022-09-21T06:37:34;12.77;;;6.50;;
71087;SDS011;58747;50.674;4.616;2022-09-21T06:40:02;14.48;;;8.90;;
71087;SDS011;58747;50.674;4.616;2022-09-21T06:42:28;13.45;;;7.28;;
71087;SDS011;58747;50.674;4.616;2022-09-21T06:44:53;10.87;;;7.70;;
71087;SDS011;58747;50.674;4.616;2022-09-21T06:47:19;14.85;;;8.07;;
71087;SDS011;58747;50.674;4.616;2022-09-21T06:49:45;12.50;;;8.07;;
71087;SDS011;58747;50.674;4.616;2022-09-21T06:52:10;14.00;;;7.97;;
71087;SDS011;58747;50.674;4.616;2022-09-21T06:54:35;11.73;;;8.77;;
71087;SDS011;58747;50.674;4.616;2022-09-21T06:57:01;14.37;;;9.60;;
71087;SDS011;58747;50.674;4.616;2022-09-21T06:59:27;16.40;;;9.20;;
71087;SDS011;58747;50.674;4.616;2022-09-21T07:01:52;17.70;;;7.83;;
71087;SDS011;58747;50.674;4.616;2022-09-21T07:04:20;17.50;;;9.97;;
71087;SDS011;58747;50.674;4.616;2022-09-21T07:06:48;15.93;;;9.52;;
71087;SDS011;58747;50.674;4.616;2022-09-21T07:09:14;17.90;;;10.03;;
71087;SDS011;58747;50.674;4.616;2022-09-21T07:11:39;21.00;;;11.17;;
71087;SDS011;58747;50.674;4.616;2022-09-21T07:14:06;21.43;;;11.27;;
71087;SDS011;58747;50.674;4.616;2022-09-21T07:16:31;19.60;;;10.80;;
71087;SDS011;58747;50.674;4.616;2022-09-21T07:18:57;24.10;;;11.77;;
71087;SDS011;58747;50.674;4.616;2022-09-21T07:21:23;20.37;;;11.70;;
71087;SDS011;58747;50.674;4.616;2022-09-21T07:23:48;19.13;;;11.97;;
71087;SDS011;58747;50.674;4.616;2022-09-21T07:26:13;28.23;;;12.60;;
71087;SDS011;58747;50.674;4.616;2022-09-21T07:28:39;21.75;;;12.02;;
71087;SDS011;58747;50.674;4.616;2022-09-21T07:31:08;24.27;;;12.50;;
71087;SDS011;58747;50.674;4.616;2022-09-21T07:33:38;24.75;;;13.45;;
71087;SDS011;58747;50.674;4.616;2022-09-21T07:36:04;25.10;;;13.40;;
71087;SDS011;58747;50.674;4.616;2022-09-21T07:38:37;25.38;;;12.52;;
71087;SDS011;58747;50.674;4.616;2022-09-21T07:41:04;26.75;;;14.57;;
71087;SDS011;58747;50.674;4.616;2022-09-21T07:43:31;29.33;;;14.05;;
71087;SDS011;58747;50.674;4.616;2022-09-21T07:45:57;26.85;;;13.88;;
71087;SDS011;58747;50.674;4.616;2022-09-21T07:48:23;22.93;;;12.73;;
71087;SDS011;58747;50.674;4.616;2022-09-21T07:50:49;27.17;;;14.50;;
71087;SDS011;58747;50.674;4.616;2022-09-21T07:53:15;24.37;;;13.27;;
71087;SDS011;58747;50.674;4.616;2022-09-21T07:55:41;27.88;;;15.02;;
71087;SDS011;58747;50.674;4.616;2022-09-21T07:58:07;27.17;;;14.48;;
71087;SDS011;58747;50.674;4.616;2022-09-21T08:00:50;25.75;;;13.13;;
71087;SDS011;58747;50.674;4.616;2022-09-21T08:03:16;24.97;;;13.47;;
71087;SDS011;58747;50.674;4.616;2022-09-21T08:05:41;24.70;;;13.17;;
71087;SDS011;58747;50.674;4.616;2022-09-21T08:08:07;26.40;;;12.90;;
71087;SDS011;58747;50.674;4.616;2022-09-21T08:10:33;24.67;;;12.48;;
71087;SDS011;58747;50.674;4.616;2022-09-21T08:12:59;28.58;;;13.13;;
71087;SDS011;58747;50.674;4.616;2022-09-21T08:15:33;26.20;;;11.93;;
71087;SDS011;58747;50.674;4.616;2022-09-21T08:17:59;20.92;;;10.32;;
71087;SDS011;58747;50.674;4.616;2022-09-21T08:20:24;17.73;;;9.73;;
71087;SDS011;58747;50.674;4.616;2022-09-21T08:22:50;17.57;;;9.50;;
71087;SDS011;58747;50.674;4.616;2022-09-21T08:25:17;21.42;;;9.13;;
71087;SDS011;58747;50.674;4.616;2022-09-21T08:27:42;16.30;;;8.10;;
71087;SDS011;58747;50.674;4.616;2022-09-21T08:30:08;12.27;;;7.57;;
71087;SDS011;58747;50.674;4.616;2022-09-21T08:32:33;12.80;;;7.93;;
71087;SDS011;58747;50.674;4.616;2022-09-21T08:34:59;21.03;;;8.27;;
71087;SDS011;58747;50.674;4.616;2022-09-21T08:37:24;13.30;;;8.05;;
71087;SDS011;58747;50.674;4.616;2022-09-21T08:39:50;11.97;;;7.17;;
71087;SDS011;58747;50.674;4.616;2022-09-21T08:44:53;15.80;;;5.82;;
71087;SDS011;58747;50.674;4.616;2022-09-21T08:52:49;9.52;;;5.45;;
71087;SDS011;58747;50.674;4.616;2022-09-21T08:55:18;13.68;;;6.40;;
71087;SDS011;58747;50.674;4.616;2022-09-21T08:57:44;11.43;;;5.75;;
71087;SDS011;58747;50.674;4.616;2022-09-21T09:00:14;6.10;;;4.63;;
71087;SDS011;58747;50.674;4.616;2022-09-21T09:08:31;8.00;;;4.82;;
71087;SDS011;58747;50.674;4.616;2022-09-21T09:18:52;6.18;;;2.58;;
71087;SDS011;58747;50.674;4.616;2022-09-21T09:21:23;5.50;;;3.10;;
71087;SDS011;58747;50.674;4.616;2022-09-21T09:23:53;7.47;;;4.13;;
71087;SDS011;58747;50.674;4.616;2022-09-21T09:26:34;9.07;;;5.65;;
71087;SDS011;58747;50.674;4.616;2022-09-21T09:29:07;10.43;;;5.60;;
71087;SDS011;58747;50.674;4.616;2022-09-21T09:31:36;8.77;;;5.68;;
71087;SDS011;58747;50.674;4.616;2022-09-21T09:34:08;9.43;;;4.80;;
71087;SDS011;58747;50.674;4.616;2022-09-21T09:36:42;8.17;;;4.60;;
71087;SDS011;58747;50.674;4.616;2022-09-21T09:39:14;9.23;;;5.20;;
71087;SDS011;58747;50.674;4.616;2022-09-21T09:47:18;9.00;;;4.90;;
71087;SDS011;58747;50.674;4.616;2022-09-21T09:52:26;6.53;;;4.60;;
71087;SDS011;58747;50.674;4.616;2022-09-21T09:54:51;8.02;;;5.22;;
71087;SDS011;58747;50.674;4.616;2022-09-21T09:57:19;6.17;;;3.80;;
71087;SDS011;58747;50.674;4.616;2022-09-21T09:59:53;4.47;;;3.88;;
71087;SDS011;58747;50.674;4.616;2022-09-21T10:02:25;4.28;;;3.75;;
71087;SDS011;58747;50.674;4.616;2022-09-21T10:04:56;7.28;;;4.40;;
71087;SDS011;58747;50.674;4.616;2022-09-21T10:07:38;5.82;;;4.13;;
71087;SDS011;58747;50.674;4.616;2022-09-21T10:10:23;5.77;;;3.87;;
71087;SDS011;58747;50.674;4.616;2022-09-21T10:13:02;5.70;;;4.32;;
71087;SDS011;58747;50.674;4.616;2022-09-21T10:15:40;7.22;;;4.13;;
71087;SDS011;58747;50.674;4.616;2022-09-21T10:18:14;5.63;;;3.75;;
71087;SDS011;58747;50.674;4.616;2022-09-21T10:20:56;7.28;;;4.55;;
71087;SDS011;58747;50.674;4.616;2022-09-21T10:23:25;7.70;;;4.20;;
71087;SDS011;58747;50.674;4.616;2022-09-21T10:25:55;5.60;;;3.95;;
71087;SDS011;58747;50.674;4.616;2022-09-21T10:28:27;5.22;;;3.75;;
71087;SDS011;58747;50.674;4.616;2022-09-21T10:31:35;5.60;;;2.95;;
71087;SDS011;58747;50.674;4.616;2022-09-21T10:33:53;4.93;;;3.03;;
71087;SDS011;58747;50.674;4.616;2022-09-21T10:36:33;4.73;;;3.07;;
71087;SDS011;58747;50.674;4.616;2022-09-21T10:50:04;3.13;;;1.80;;
71087;SDS011;58747;50.674;4.616;2022-09-21T10:52:33;4.65;;;1.98;;
71087;SDS011;58747;50.674;4.616;2022-09-21T10:55:02;2.10;;;1.77;;
71087;SDS011;58747;50.674;4.616;2022-09-21T10:57:29;5.63;;;2.42;;
71087;SDS011;58747;50.674;4.616;2022-09-21T10:59:57;4.95;;;2.50;;
71087;SDS011;58747;50.674;4.616;2022-09-21T11:05:18;3.30;;;1.98;;
71087;SDS011;58747;50.674;4.616;2022-09-21T11:10:29;3.33;;;2.20;;
71087;SDS011;58747;50.674;4.616;2022-09-21T11:15:49;6.30;;;1.60;;
71087;SDS011;58747;50.674;4.616;2022-09-21T11:28:56;5.80;;;3.70;;
71087;SDS011;58747;50.674;4.616;2022-09-21T11:48:34;5.00;;;2.40;;
71087;SDS011;58747;50.674;4.616;2022-09-21T11:54:08;6.95;;;2.20;;
71087;SDS011;58747;50.674;4.616;2022-09-21T11:59:35;2.63;;;1.65;;
71087;SDS011;58747;50.674;4.616;2022-09-21T12:12:53;5.00;;;1.83;;
71087;SDS011;58747;50.674;4.616;2022-09-21T12:15:32;3.88;;;1.35;;
71087;SDS011;58747;50.674;4.616;2022-09-21T12:18:10;3.40;;;1.70;;
71087;SDS011;58747;50.674;4.616;2022-09-21T12:21:00;2.33;;;1.92;;
71087;SDS011;58747;50.674;4.616;2022-09-21T12:23:56;2.30;;;2.10;;
71087;SDS011;58747;50.674;4.616;2022-09-21T12:26:27;4.13;;;1.63;;
71087;SDS011;58747;50.674;4.616;2022-09-21T12:29:09;3.75;;;1.77;;
71087;SDS011;58747;50.674;4.616;2022-09-21T12:31:55;3.20;;;1.50;;
71087;SDS011;58747;50.674;4.616;2022-09-21T12:34:30;3.17;;;1.98;;
71087;SDS011;58747;50.674;4.616;2022-09-21T12:37:24;2.97;;;1.73;;
71087;SDS011;58747;50.674;4.616;2022-09-21T12:42:44;3.55;;;1.98;;
71087;SDS011;58747;50.674;4.616;2022-09-21T12:45:21;1.60;;;1.50;;
71087;SDS011;58747;50.674;4.616;2022-09-21T12:50:25;2.67;;;1.67;;
71087;SDS011;58747;50.674;4.616;2022-09-21T12:52:58;3.38;;;1.60;;
71087;SDS011;58747;50.674;4.616;2022-09-21T12:58:29;4.25;;;1.65;;
71087;SDS011;58747;50.674;4.616;2022-09-21T13:01:07;6.90;;;3.70;;
71087;SDS011;58747;50.674;4.616;2022-09-21T13:09:45;2.83;;;1.50;;
71087;SDS011;58747;50.674;4.616;2022-09-21T13:14:43;2.53;;;1.80;;
71087;SDS011;58747;50.674;4.616;2022-09-21T13:20:27;1.33;;;1.10;;
71087;SDS011;58747;50.674;4.616;2022-09-21T13:22:57;1.55;;;1.33;;
71087;SDS011;58747;50.674;4.616;2022-09-21T13:25:25;15.25;;;9.63;;
71087;SDS011;58747;50.674;4.616;2022-09-21T13:38:24;1.95;;;1.27;;
71087;SDS011;58747;50.674;4.616;2022-09-21T13:48:55;2.00;;;1.45;;
71087;SDS011;58747;50.674;4.616;2022-09-21T13:51:22;3.17;;;1.60;;
71087;SDS011;58747;50.674;4.616;2022-09-21T13:53:51;2.33;;;1.48;;
71087;SDS011;58747;50.674;4.616;2022-09-21T13:56:22;2.60;;;1.57;;
71087;SDS011;58747;50.674;4.616;2022-09-21T13:58:50;3.30;;;1.60;;
71087;SDS011;58747;50.674;4.616;2022-09-21T14:01:23;2.17;;;1.70;;
71087;SDS011;58747;50.674;4.616;2022-09-21T14:03:59;1.45;;;1.35;;
71087;SDS011;58747;50.674;4.616;2022-09-21T14:06:29;2.33;;;1.70;;
71087;SDS011;58747;50.674;4.616;2022-09-21T14:09:00;2.37;;;1.17;;
71087;SDS011;58747;50.674;4.616;2022-09-21T14:24:39;3.03;;;1.40;;
71087;SDS011;58747;50.674;4.616;2022-09-21T14:32:45;1.55;;;1.45;;
71087;SDS011;58747;50.674;4.616;2022-09-21T14:35:22;1.53;;;1.23;;
71087;SDS011;58747;50.674;4.616;2022-09-21T14:37:50;1.40;;;1.30;;
71087;SDS011;58747;50.674;4.616;2022-09-21T14:40:24;1.42;;;1.20;;
71087;SDS011;58747;50.674;4.616;2022-09-21T14:43:15;1.65;;;0.90;;
71087;SDS011;58747;50.674;4.616;2022-09-21T15:00:15;3.60;;;1.63;;
71087;SDS011;58747;50.674;4.616;2022-09-21T15:05:42;2.88;;;1.20;;
71087;SDS011;58747;50.674;4.616;2022-09-21T15:11:26;3.45;;;1.50;;
71087;SDS011;58747;50.674;4.616;2022-09-21T15:16:45;3.33;;;1.37;;
71087;SDS011;58747;50.674;4.616;2022-09-21T15:21:42;1.60;;;1.30;;
71087;SDS011;58747;50.674;4.616;2022-09-21T15:24:17;1.50;;;1.40;;
71087;SDS011;58747;50.674;4.616;2022-09-21T15:26:44;2.35;;;1.08;;
71087;SDS011;58747;50.674;4.616;2022-09-21T15:29:17;2.10;;;1.20;;
71087;SDS011;58747;50.674;4.616;2022-09-21T15:31:46;1.80;;;1.57;;
71087;SDS011;58747;50.674;4.616;2022-09-21T15:34:11;2.13;;;1.60;;
71087;SDS011;58747;50.674;4.616;2022-09-21T15:36:39;8.63;;;4.13;;
71087;SDS011;58747;50.674;4.616;2022-09-21T15:39:19;2.65;;;1.85;;
71087;SDS011;58747;50.674;4.616;2022-09-21T15:41:47;2.20;;;1.33;;
71087;SDS011;58747;50.674;4.616;2022-09-21T15:44:20;1.65;;;1.23;;
71087;SDS011;58747;50.674;4.616;2022-09-21T15:46:49;1.48;;;1.23;;
71087;SDS011;58747;50.674;4.616;2022-09-21T15:49:17;1.50;;;1.40;;
71087;SDS011;58747;50.674;4.616;2022-09-21T15:51:46;3.10;;;1.20;;
71087;SDS011;58747;50.674;4.616;2022-09-21T15:57:04;2.25;;;1.35;;
71087;SDS011;58747;50.674;4.616;2022-09-21T15:59:52;1.35;;;1.13;;
71087;SDS011;58747;50.674;4.616;2022-09-21T16:02:19;3.20;;;1.50;;
71087;SDS011;58747;50.674;4.616;2022-09-21T16:04:47;1.65;;;1.38;;
71087;SDS011;58747;50.674;4.616;2022-09-21T16:07:23;2.03;;;1.10;;
71087;SDS011;58747;50.674;4.616;2022-09-21T16:09:50;1.48;;;1.38;;
71087;SDS011;58747;50.674;4.616;2022-09-21T16:14:51;3.53;;;1.48;;
71087;SDS011;58747;50.674;4.616;2022-09-21T16:25:01;5.45;;;1.63;;
71087;SDS011;58747;50.674;4.616;2022-09-21T16:27:37;2.57;;;1.03;;
71087;SDS011;58747;50.674;4.616;2022-09-21T16:30:23;1.73;;;1.30;;
71087;SDS011;58747;50.674;4.616;2022-09-21T16:38:49;1.60;;;1.50;;
71087;SDS011;58747;50.674;4.616;2022-09-21T16:41:17;4.43;;;1.17;;
71087;SDS011;58747;50.674;4.616;2022-09-21T16:43:44;3.63;;;1.25;;
71087;SDS011;58747;50.674;4.616;2022-09-21T16:46:09;1.73;;;1.50;;
71087;SDS011;58747;50.674;4.616;2022-09-21T16:48:35;4.37;;;1.53;;
71087;SDS011;58747;50.674;4.616;2022-09-21T16:51:00;4.70;;;1.77;;
71087;SDS011;58747;50.674;4.616;2022-09-21T16:53:27;4.30;;;1.60;;
71087;SDS011;58747;50.674;4.616;2022-09-21T16:55:52;2.75;;;1.48;;
71087;SDS011;58747;50.674;4.616;2022-09-21T16:58:19;5.57;;;2.42;;
71087;SDS011;58747;50.674;4.616;2022-09-21T17:00:45;2.67;;;1.40;;
71087;SDS011;58747;50.674;4.616;2022-09-21T17:03:13;2.08;;;1.98;;
71087;SDS011;58747;50.674;4.616;2022-09-21T17:05:39;2.63;;;2.20;;
71087;SDS011;58747;50.674;4.616;2022-09-21T17:08:05;2.53;;;1.80;;
71087;SDS011;58747;50.674;4.616;2022-09-21T17:10:33;3.23;;;2.33;;
71087;SDS011;58747;50.674;4.616;2022-09-21T17:13:02;2.45;;;1.50;;
71087;SDS011;58747;50.674;4.616;2022-09-21T17:15:30;2.60;;;1.70;;
71087;SDS011;58747;50.674;4.616;2022-09-21T17:17:56;4.40;;;2.03;;
71087;SDS011;58747;50.674;4.616;2022-09-21T17:20:26;2.72;;;1.83;;
71087;SDS011;58747;50.674;4.616;2022-09-21T17:22:57;1.58;;;1.48;;
71087;SDS011;58747;50.674;4.616;2022-09-21T17:25:22;3.47;;;1.90;;
71087;SDS011;58747;50.674;4.616;2022-09-21T17:27:48;2.10;;;1.93;;
71087;SDS011;58747;50.674;4.616;2022-09-21T17:30:13;2.47;;;2.17;;
71087;SDS011;58747;50.674;4.616;2022-09-21T17:32:39;3.17;;;1.90;;
71087;SDS011;58747;50.674;4.616;2022-09-21T17:37:54;6.93;;;3.50;;
71087;SDS011;58747;50.674;4.616;2022-09-21T17:40:20;9.30;;;4.77;;
71087;SDS011;58747;50.674;4.616;2022-09-21T17:42:47;10.23;;;5.03;;
71087;SDS011;58747;50.674;4.616;2022-09-21T17:47:38;8.77;;;5.40;;
71087;SDS011;58747;50.674;4.616;2022-09-21T17:52:35;8.20;;;5.80;;
71087;SDS011;58747;50.674;4.616;2022-09-21T17:55:20;9.77;;;6.27;;
71087;SDS011;58747;50.674;4.616;2022-09-21T17:57:55;9.00;;;6.25;;
71087;SDS011;58747;50.674;4.616;2022-09-21T18:05:48;9.48;;;6.80;;
71087;SDS011;58747;50.674;4.616;2022-09-21T18:08:15;10.52;;;6.80;;
71087;SDS011;58747;50.674;4.616;2022-09-21T18:10:43;9.40;;;5.82;;
71087;SDS011;58747;50.674;4.616;2022-09-21T18:13:23;7.80;;;5.18;;
71087;SDS011;58747;50.674;4.616;2022-09-21T18:16:06;5.90;;;4.73;;
71087;SDS011;58747;50.674;4.616;2022-09-21T18:21:15;4.57;;;3.30;;
71087;SDS011;58747;50.674;4.616;2022-09-21T18:26:27;5.32;;;3.67;;
71087;SDS011;58747;50.674;4.616;2022-09-21T18:28:52;3.83;;;3.30;;
71087;SDS011;58747;50.674;4.616;2022-09-21T18:31:40;5.13;;;3.55;;
71087;SDS011;58747;50.674;4.616;2022-09-21T18:39:54;3.17;;;2.88;;
71087;SDS011;58747;50.674;4.616;2022-09-21T18:45:43;4.78;;;2.75;;
71087;SDS011;58747;50.674;4.616;2022-09-21T18:48:28;5.00;;;2.40;;
71087;SDS011;58747;50.674;4.616;2022-09-21T18:51:04;3.20;;;2.63;;
71087;SDS011;58747;50.674;4.616;2022-09-21T18:53:35;3.28;;;2.35;;
71087;SDS011;58747;50.674;4.616;2022-09-21T18:56:01;5.13;;;2.97;;
71087;SDS011;58747;50.674;4.616;2022-09-21T18:58:35;5.25;;;3.00;;
71087;SDS011;58747;50.674;4.616;2022-09-21T19:01:00;6.05;;;3.40;;
71087;SDS011;58747;50.674;4.616;2022-09-21T19:03:28;6.83;;;3.57;;
71087;SDS011;58747;50.674;4.616;2022-09-21T19:09:29;6.15;;;3.67;;
71087;SDS011;58747;50.674;4.616;2022-09-21T19:12:01;6.13;;;4.67;;
71087;SDS011;58747;50.674;4.616;2022-09-21T19:20:33;6.90;;;4.25;;
71087;SDS011;58747;50.674;4.616;2022-09-21T19:23:10;7.75;;;5.35;;
71087;SDS011;58747;50.674;4.616;2022-09-21T19:25:52;9.07;;;5.33;;